Lac du Flambeau, WI (54538)

6:35 AM CST on December 06, 2016 (GMT -0600)
1/2 mile west of Haskell Lake | | Change Station

Elev 932 ft 45.91 °N, 89.92 °W | Updated 30 seconds ago

Overcast
Overcast
29.7 °F
Feels Like 30 °F
N
2.2
Wind Variable Wind from South

Today
High -- | Low -- °F
--% Chance of Precip.
Yesterday
High -- | Low -- °F
Precip. -- in
Pressure 29.68 in
Visibility 7.0 miles
Clouds Overcast 1000 ft
Windchill 30 °F
Dew Point 30 °F
Humidity 99%
Rainfall 0.00 in
Snow Depth Not available.
7:26 AM 4:14 PM
Waxing Crescent, 41% visible
METAR KARV 061215Z AUTO 17011KT 7SM OVC010 00/M02 A2968 RMK AO2 T10011019
Pressure 29.68 in
Visibility 7.0 miles
Clouds Overcast 1000 ft
Windchill 30 °F
Dew Point 30 °F
Humidity 99%
Rainfall 0.00 in
Snow Depth Not available.
7:26 AM 4:14 PM
Waxing Crescent, 41% visible
METAR KARV 061215Z AUTO 17011KT 7SM OVC010 00/M02 A2968 RMK AO2 T10011019

10-Day Weather Forecast

Almanac

Astronomy

Dec. 06, 2016 Rise Set
Actual Time
Civil Twilight
Nautical Twilight
Astronomical Twilight
Moon
Length of Visible Light
Length of Day
Tomorrow will be .
, % of the Moon is Illuminated

Today's Extremes

State Highs State Lows

Community

WunderPhotos

Upload Photos

1,955,936 photos uploaded!

WunderBlog® & News

Nearby

Air Quality

  Air Quality AQ Index Pollutant
Not available.

Snow Depth

Station Depth Elevation

Earthquake Activity

City Distance Mag. Time & Date
Minimum magnitude displayed is 2.5.

Coastal Water Temperatures

Place Temperature

Stations

Nearby Weather Stations

Station Location Temp. Windchill Dew Point Humidity Wind Precip. Elev Updated Type
                   

Watches & Warnings

There are currently no watches in effect.